Terminal Aerodrome Forecast
Issued by NWS Duluth, MN

Home | Current Version | Previous Version | Text Only | Print | Product List | Glossary On
Versions: 1 2 3 4 5 6 7 8 9 10 11 12 13 14 15 16 17 18 19 20 21
000
FTUS43 KDLH 032342
TAFINL
TAF
KINL 032342Z 0400/0424 VRB05KT P6SM FEW050
     FM040200 VRB03KT P6SM SKC
      TEMPO 0408/0412 5SM FU
     FM041600 16007KT P6SM SCT050=

USA.gov is the U.S. government's official web portal to all federal, state and local government web resources and services.